createdAt,value
2018-09-12T00:00:30.447Z,0.00
2018-09-12T00:01:30.437Z,0.00
2018-09-12T00:02:30.687Z,0.00
2018-09-12T00:03:30.528Z,0.00
2018-09-12T00:04:30.442Z,0.00
2018-09-12T00:05:30.936Z,0.00
2018-09-12T00:06:30.648Z,0.00
2018-09-12T00:07:30.366Z,0.00
2018-09-12T00:08:30.657Z,0.00
2018-09-12T00:09:30.351Z,0.00
2018-09-12T00:10:30.336Z,0.00
2018-09-12T00:11:30.325Z,0.00
2018-09-12T00:12:30.312Z,0.00
2018-09-12T00:13:30.320Z,0.00
2018-09-12T00:14:30.300Z,0.00
2018-09-12T00:15:30.283Z,0.00
2018-09-12T00:16:30.271Z,0.00
2018-09-12T00:17:30.259Z,0.00
2018-09-12T00:18:30.245Z,0.00
2018-09-12T00:19:30.242Z,0.00
2018-09-12T00:20:30.226Z,0.00
2018-09-12T00:21:30.254Z,0.00
2018-09-12T00:22:30.470Z,0.00
2018-09-12T00:23:30.299Z,0.00
2018-09-12T00:24:30.189Z,0.00
2018-09-12T00:25:30.171Z,0.00
2018-09-12T00:26:30.163Z,0.00
2018-09-12T00:27:30.163Z,0.00
2018-09-12T00:28:30.149Z,0.00
2018-09-12T00:29:30.143Z,0.00
2018-09-12T00:30:33.714Z,0.00
2018-09-12T00:31:30.108Z,0.00
2018-09-12T00:32:30.123Z,0.00
2018-09-12T00:33:30.081Z,0.00
2018-09-12T00:34:30.085Z,0.00
2018-09-12T00:35:30.073Z,0.00
2018-09-12T00:36:30.057Z,0.00
2018-09-12T00:37:30.048Z,0.00
2018-09-12T00:38:30.029Z,0.00
2018-09-12T00:39:30.024Z,0.00
2018-09-12T00:40:30.033Z,0.00
2018-09-12T00:41:29.996Z,0.00
2018-09-12T00:42:29.993Z,0.00
2018-09-12T00:43:29.977Z,0.00
2018-09-12T00:44:29.960Z,0.00
2018-09-12T00:45:29.952Z,0.00
2018-09-12T00:46:30.214Z,0.00
2018-09-12T00:47:29.933Z,0.00
2018-09-12T00:48:30.184Z,0.00
2018-09-12T00:49:29.907Z,0.00
2018-09-12T00:50:29.906Z,0.00
2018-09-12T00:51:29.895Z,0.00
2018-09-12T00:52:29.879Z,0.00
2018-09-12T00:53:29.867Z,0.00
2018-09-12T00:54:29.917Z,0.00
2018-09-12T00:55:29.841Z,0.00
2018-09-12T00:56:29.830Z,0.00
2018-09-12T00:57:29.829Z,0.00
2018-09-12T00:58:30.077Z,0.00
2018-09-12T00:59:29.849Z,0.00
2018-09-12T01:00:29.792Z,0.00
2018-09-12T01:01:29.774Z,0.00
2018-09-12T01:02:29.764Z,0.00
2018-09-12T01:03:29.755Z,0.00
2018-09-12T01:04:29.742Z,0.00
2018-09-12T01:05:29.741Z,0.00
2018-09-12T01:06:29.726Z,0.00
2018-09-12T01:07:29.715Z,0.00
2018-09-12T01:08:29.966Z,0.00
2018-09-12T01:09:29.687Z,0.00
2018-09-12T01:10:29.682Z,0.00
2018-09-12T01:11:29.675Z,0.00
2018-09-12T01:12:29.658Z,0.00
2018-09-12T01:13:29.645Z,0.00
2018-09-12T01:14:29.632Z,0.00
2018-09-12T01:15:29.623Z,0.00
2018-09-12T01:16:29.610Z,0.00
2018-09-12T01:17:29.608Z,0.00
2018-09-12T01:18:29.591Z,0.00
2018-09-12T01:19:29.852Z,0.00
2018-09-12T01:20:29.576Z,0.00
2018-09-12T01:21:29.558Z,0.00
2018-09-12T01:22:29.667Z,0.00
2018-09-12T01:23:30.114Z,0.00
2018-09-12T01:24:29.548Z,0.00
2018-09-12T01:25:29.516Z,0.00
2018-09-12T01:26:29.600Z,0.00
2018-09-12T01:27:29.494Z,0.00
2018-09-12T01:28:29.479Z,0.00
2018-09-12T01:29:29.481Z,0.00
2018-09-12T01:30:29.462Z,0.00
2018-09-12T01:31:30.687Z,0.00
2018-09-12T01:32:29.553Z,0.00
2018-09-12T01:33:29.424Z,0.00
2018-09-12T01:34:29.413Z,0.00
2018-09-12T01:35:29.404Z,0.00
2018-09-12T01:36:29.392Z,0.00
2018-09-12T01:37:29.385Z,0.00
2018-09-12T01:38:29.369Z,0.00
2018-09-12T01:39:29.359Z,0.00
2018-09-12T01:40:29.607Z,0.00
2018-09-12T01:41:29.606Z,0.00
2018-09-12T01:42:29.342Z,0.00
2018-09-12T01:43:29.315Z,0.00
2018-09-12T01:44:29.348Z,0.00
2018-09-12T01:45:29.302Z,0.00
2018-09-12T01:46:29.290Z,0.00
2018-09-12T01:47:29.277Z,0.00
2018-09-12T01:48:29.266Z,0.00
2018-09-12T01:49:29.516Z,0.00
2018-09-12T01:50:29.239Z,0.00
2018-09-12T01:51:29.226Z,0.00
2018-09-12T01:52:29.227Z,0.00
2018-09-12T01:53:29.205Z,0.00
2018-09-12T01:54:29.461Z,0.00
2018-09-12T01:55:29.190Z,0.00
2018-09-12T01:56:29.174Z,0.00
2018-09-12T01:57:29.163Z,0.00
2018-09-12T01:58:29.158Z,0.00
2018-09-12T01:59:29.141Z,0.00
2018-09-12T02:00:29.131Z,0.00
2018-09-12T02:01:29.119Z,0.00
2018-09-12T02:02:29.372Z,0.00
2018-09-12T02:03:29.100Z,0.00
2018-09-12T02:04:29.342Z,0.00
2018-09-12T02:05:29.076Z,0.00
2018-09-12T02:06:29.066Z,0.00
2018-09-12T02:07:30.089Z,0.00
2018-09-12T02:08:29.040Z,0.00
2018-09-12T02:09:29.029Z,0.00
2018-09-12T02:10:29.019Z,0.00
2018-09-12T02:11:29.280Z,0.00
2018-09-12T02:12:29.000Z,0.00
2018-09-12T02:13:28.984Z,0.00
2018-09-12T02:14:28.990Z,0.00
2018-09-12T02:15:28.974Z,0.00
2018-09-12T02:16:29.219Z,0.00
2018-09-12T02:17:28.954Z,0.00
2018-09-12T02:18:28.933Z,0.00
2018-09-12T02:19:28.923Z,0.00
2018-09-12T02:20:28.928Z,0.00
2018-09-12T02:21:28.901Z,0.00
2018-09-12T02:22:28.907Z,0.00
2018-09-12T02:23:28.876Z,0.00
2018-09-12T02:24:28.882Z,0.00
2018-09-12T02:25:28.854Z,0.00
2018-09-12T02:26:28.859Z,0.00
2018-09-12T02:27:28.833Z,0.00
2018-09-12T02:28:29.107Z,0.00
2018-09-12T02:29:28.812Z,0.00
2018-09-12T02:30:28.803Z,0.00
2018-09-12T02:31:28.809Z,0.00
2018-09-12T02:32:28.791Z,0.00
2018-09-12T02:33:28.772Z,0.00
2018-09-12T02:34:28.760Z,0.00
2018-09-12T02:35:28.749Z,0.00
2018-09-12T02:36:28.734Z,0.00
2018-09-12T02:37:28.726Z,0.00
2018-09-12T02:38:28.728Z,0.00
2018-09-12T02:39:28.703Z,0.00
2018-09-12T02:40:28.705Z,0.00
2018-09-12T02:41:28.682Z,0.00
2018-09-12T02:42:28.932Z,0.00
2018-09-12T02:43:28.671Z,0.00
2018-09-12T02:44:28.707Z,0.00
2018-09-12T02:45:28.643Z,0.00
2018-09-12T02:46:28.640Z,0.00
2018-09-12T02:47:28.615Z,0.00
2018-09-12T02:48:28.606Z,0.00
2018-09-12T02:49:28.857Z,0.00
2018-09-12T02:50:28.582Z,0.00
2018-09-12T02:51:28.572Z,0.00
2018-09-12T02:52:28.560Z,0.00
2018-09-12T02:53:28.557Z,0.00
2018-09-12T02:54:28.551Z,0.00
2018-09-12T02:55:28.527Z,0.00
2018-09-12T02:56:28.778Z,0.00
2018-09-12T02:57:28.513Z,0.00
2018-09-12T02:58:28.517Z,0.00
2018-09-12T02:59:28.604Z,0.00
2018-09-12T03:00:28.479Z,0.00
2018-09-12T03:01:28.466Z,0.00
2018-09-12T03:02:28.723Z,0.00
2018-09-12T03:03:28.445Z,0.00
2018-09-12T03:04:46.732Z,0.00
2018-09-12T03:05:28.422Z,0.00
2018-09-12T03:06:28.409Z,0.00
2018-09-12T03:07:28.404Z,0.00
2018-09-12T03:08:28.386Z,0.00
2018-09-12T03:09:28.408Z,0.00
2018-09-12T03:10:28.366Z,0.00
2018-09-12T03:11:28.617Z,0.00
2018-09-12T03:12:28.341Z,0.00
2018-09-12T03:13:28.336Z,0.00
2018-09-12T03:14:28.451Z,0.00
2018-09-12T03:15:28.316Z,0.00
2018-09-12T03:16:28.301Z,0.00
2018-09-12T03:17:28.286Z,0.00
2018-09-12T03:18:28.279Z,0.00
2018-09-12T03:19:28.265Z,0.00
2018-09-12T03:20:28.296Z,0.00
2018-09-12T03:21:28.372Z,0.00
2018-09-12T03:22:28.625Z,0.00
2018-09-12T03:23:28.491Z,0.00
2018-09-12T03:24:28.479Z,0.00
2018-09-12T03:25:28.204Z,0.00
2018-09-12T03:26:28.194Z,0.00
2018-09-12T03:27:28.178Z,0.00
2018-09-12T03:28:28.168Z,0.00
2018-09-12T03:29:28.157Z,0.00
2018-09-12T03:30:28.437Z,0.00
2018-09-12T03:31:28.132Z,0.00
2018-09-12T03:32:28.153Z,0.00
2018-09-12T03:33:28.113Z,0.00
2018-09-12T03:34:28.118Z,0.00
2018-09-12T03:35:28.092Z,0.00
2018-09-12T03:36:28.092Z,0.00
2018-09-12T03:37:28.081Z,0.00
2018-09-12T03:38:28.059Z,0.00
2018-09-12T03:39:28.046Z,0.00
2018-09-12T03:40:28.044Z,0.00
2018-09-12T03:41:28.032Z,0.00
2018-09-12T03:42:28.016Z,0.00
2018-09-12T03:43:28.002Z,0.00
2018-09-12T03:44:27.989Z,0.00
2018-09-12T03:45:27.981Z,0.00
2018-09-12T03:46:27.977Z,0.00
2018-09-12T03:47:27.960Z,0.00
2018-09-12T03:48:27.968Z,0.00
2018-09-12T03:49:27.934Z,0.00
2018-09-12T03:50:27.937Z,0.00
2018-09-12T03:51:27.924Z,0.00
2018-09-12T03:52:27.904Z,0.00
2018-09-12T03:53:27.897Z,0.00
2018-09-12T03:54:27.885Z,0.00
2018-09-12T03:55:27.875Z,0.00
2018-09-12T03:56:27.935Z,0.00
2018-09-12T03:57:28.112Z,0.00
2018-09-12T03:58:27.842Z,0.00
2018-09-12T03:59:27.827Z,0.00
2018-09-12T04:00:27.813Z,0.00
2018-09-12T04:01:28.069Z,0.00
2018-09-12T04:02:27.802Z,0.00
2018-09-12T04:03:27.787Z,0.00
2018-09-12T04:04:28.043Z,0.00
2018-09-12T04:05:27.777Z,0.00
2018-09-12T04:06:27.747Z,0.00
2018-09-12T04:07:27.739Z,0.00
2018-09-12T04:08:27.733Z,0.00
2018-09-12T04:09:27.719Z,0.00
2018-09-12T04:10:27.718Z,0.00
2018-09-12T04:11:27.696Z,0.00
2018-09-12T04:12:27.683Z,0.00
2018-09-12T04:13:27.944Z,0.00
2018-09-12T04:14:27.668Z,0.00
2018-09-12T04:15:27.655Z,0.00
2018-09-12T04:16:27.970Z,0.00
2018-09-12T04:17:27.632Z,0.00
2018-09-12T04:18:27.621Z,0.00
2018-09-12T04:19:27.613Z,0.00
2018-09-12T04:20:27.596Z,0.00
2018-09-12T04:21:27.582Z,0.00
2018-09-12T04:22:27.574Z,0.00
2018-09-12T04:23:27.645Z,0.00
2018-09-12T04:24:27.641Z,0.00
2018-09-12T04:25:27.540Z,0.00
2018-09-12T04:26:27.531Z,0.00
2018-09-12T04:27:27.550Z,0.00
2018-09-12T04:28:27.524Z,0.00
2018-09-12T04:29:27.500Z,0.00
2018-09-12T04:30:27.740Z,0.00
2018-09-12T04:31:27.490Z,0.00
2018-09-12T04:32:27.470Z,0.00
2018-09-12T04:33:27.453Z,0.00
2018-09-12T04:34:27.459Z,0.00
2018-09-12T04:35:27.442Z,0.00
2018-09-12T04:36:27.421Z,0.00
2018-09-12T04:37:27.675Z,0.00
2018-09-12T04:38:27.397Z,0.00
2018-09-12T04:39:27.396Z,0.00
2018-09-12T04:40:27.378Z,0.00
2018-09-12T04:41:27.362Z,0.00
2018-09-12T04:42:27.367Z,0.00
2018-09-12T04:43:27.533Z,0.00
2018-09-12T04:44:27.458Z,0.00
2018-09-12T04:45:27.319Z,0.00
2018-09-12T04:46:27.314Z,0.00
2018-09-12T04:47:27.310Z,0.00
2018-09-12T04:48:27.645Z,0.00
2018-09-12T04:49:27.288Z,0.00
2018-09-12T04:50:27.264Z,0.00
2018-09-12T04:51:27.529Z,0.00
2018-09-12T04:52:27.513Z,0.00
2018-09-12T04:53:27.231Z,5.62
2018-09-12T04:54:27.233Z,5.62
2018-09-12T04:55:27.207Z,5.62
2018-09-12T04:56:27.199Z,5.62
2018-09-12T04:57:27.189Z,5.62
2018-09-12T04:58:27.174Z,5.62
2018-09-12T04:59:27.191Z,11.25
2018-09-12T05:00:27.156Z,11.25
2018-09-12T05:01:27.156Z,11.25
2018-09-12T05:02:27.139Z,11.25
2018-09-12T05:03:27.383Z,11.25
2018-09-12T05:04:27.116Z,16.88
2018-09-12T05:05:27.099Z,16.88
2018-09-12T05:06:27.097Z,16.88
2018-09-12T05:07:27.340Z,22.50
2018-09-12T05:08:27.336Z,22.50
2018-09-12T05:09:27.175Z,22.50
2018-09-12T05:10:27.175Z,28.12
2018-09-12T05:11:27.031Z,28.12
2018-09-12T05:12:27.024Z,28.12
2018-09-12T05:13:27.386Z,33.75
2018-09-12T05:14:27.003Z,33.75
2018-09-12T05:15:26.992Z,33.75
2018-09-12T05:16:26.995Z,39.38
2018-09-12T05:17:26.966Z,39.38
2018-09-12T05:18:26.953Z,39.38
2018-09-12T05:19:26.953Z,45.00
2018-09-12T05:20:26.932Z,45.00
2018-09-12T05:21:27.183Z,50.62
2018-09-12T05:22:26.929Z,50.62
2018-09-12T05:23:26.897Z,50.62
2018-09-12T05:24:26.903Z,56.25
2018-09-12T05:25:27.207Z,56.25
2018-09-12T05:26:26.864Z,61.88
2018-09-12T05:27:26.874Z,61.88
2018-09-12T05:28:26.896Z,61.88
2018-09-12T05:29:26.845Z,67.50
2018-09-12T05:30:27.124Z,67.50
2018-09-12T05:31:26.817Z,73.12
2018-09-12T05:32:26.807Z,73.12
2018-09-12T05:33:26.800Z,73.12
2018-09-12T05:34:27.054Z,78.75
2018-09-12T05:35:26.777Z,78.75
2018-09-12T05:36:26.934Z,84.38
2018-09-12T05:37:26.761Z,84.38
2018-09-12T05:38:26.801Z,84.38
2018-09-12T05:39:26.722Z,90.00
2018-09-12T05:40:26.713Z,90.00
2018-09-12T05:41:26.701Z,95.62
2018-09-12T05:42:26.687Z,95.62
2018-09-12T05:43:26.686Z,95.62
2018-09-12T05:44:26.676Z,101.25
2018-09-12T05:45:26.931Z,101.25
2018-09-12T05:46:26.914Z,106.88
2018-09-12T05:47:26.636Z,106.88
2018-09-12T05:48:30.775Z,106.88
2018-09-12T05:49:26.630Z,106.88
2018-09-12T05:50:26.604Z,106.88
2018-09-12T05:51:26.600Z,118.12
2018-09-12T05:52:26.592Z,118.12
2018-09-12T05:53:26.622Z,123.75
2018-09-12T05:54:26.575Z,129.38
2018-09-12T05:55:26.560Z,140.62
2018-09-12T05:56:26.544Z,163.12
2018-09-12T05:57:26.545Z,174.38
2018-09-12T05:58:26.516Z,157.50
2018-09-12T05:59:26.573Z,151.88
2018-09-12T06:00:26.509Z,140.62
2018-09-12T06:01:26.570Z,135.00
2018-09-12T06:02:26.659Z,135.00
2018-09-12T06:03:26.721Z,135.00
2018-09-12T06:04:26.499Z,135.00
2018-09-12T06:05:26.455Z,135.00
2018-09-12T06:06:26.451Z,140.62
2018-09-12T06:07:27.437Z,140.62
2018-09-12T06:08:26.414Z,140.62
2018-09-12T06:09:26.554Z,140.62
2018-09-12T06:10:26.424Z,146.25
2018-09-12T06:11:26.373Z,146.25
2018-09-12T06:12:26.366Z,146.25
2018-09-12T06:13:27.319Z,146.25
2018-09-12T06:14:26.346Z,151.88
2018-09-12T06:15:26.334Z,151.88
2018-09-12T06:16:26.324Z,157.50
2018-09-12T06:17:26.305Z,157.50
2018-09-12T06:18:26.304Z,157.50
2018-09-12T06:19:26.293Z,157.50
2018-09-12T06:20:26.388Z,157.50
2018-09-12T06:21:26.529Z,157.50
2018-09-12T06:22:26.385Z,163.12
2018-09-12T06:23:26.304Z,163.12
2018-09-12T06:24:26.330Z,163.12
2018-09-12T06:25:26.350Z,163.12
2018-09-12T06:26:26.218Z,168.75
2018-09-12T06:27:26.214Z,168.75
2018-09-12T06:28:26.467Z,168.75
2018-09-12T06:29:26.174Z,168.75
2018-09-12T06:30:26.185Z,168.75
2018-09-12T06:31:26.296Z,174.38
2018-09-12T06:32:26.221Z,174.38
2018-09-12T06:33:26.251Z,174.38
2018-09-12T06:34:26.272Z,174.38
2018-09-12T06:35:26.229Z,174.38
2018-09-12T06:36:26.111Z,174.38
2018-09-12T06:37:26.644Z,180.00
2018-09-12T06:38:26.153Z,180.00
2018-09-12T06:39:26.400Z,180.00
2018-09-12T06:40:26.326Z,180.00
2018-09-12T06:41:26.045Z,180.00
2018-09-12T06:42:26.056Z,185.62
2018-09-12T06:43:26.023Z,185.62
2018-09-12T06:44:26.042Z,185.62
2018-09-12T06:45:26.007Z,185.62
2018-09-12T06:46:26.007Z,185.62
2018-09-12T06:47:26.106Z,185.62
2018-09-12T06:48:26.029Z,185.62
2018-09-12T06:49:25.956Z,185.62
2018-09-12T06:50:26.102Z,191.25
2018-09-12T06:51:25.943Z,191.25
2018-09-12T06:52:26.003Z,191.25
2018-09-12T06:53:26.287Z,191.25
2018-09-12T06:54:26.024Z,191.25
2018-09-12T06:55:25.896Z,191.25
2018-09-12T06:56:26.682Z,191.25
2018-09-12T06:57:25.893Z,191.25
2018-09-12T06:58:25.935Z,196.88
2018-09-12T06:59:25.860Z,196.88
2018-09-12T07:00:27.516Z,196.88
2018-09-12T07:01:25.834Z,196.88
2018-09-12T07:02:26.237Z,196.88
2018-09-12T07:03:26.200Z,196.88
2018-09-12T07:04:25.804Z,196.88
2018-09-12T07:05:25.785Z,196.88
2018-09-12T07:06:25.772Z,196.88
2018-09-12T07:07:25.813Z,196.88
2018-09-12T07:08:25.753Z,196.88
2018-09-12T07:09:25.877Z,196.88
2018-09-12T07:10:25.867Z,196.88
2018-09-12T07:11:29.520Z,196.88
2018-09-12T07:12:25.805Z,196.88
2018-09-12T07:13:25.962Z,196.88
2018-09-12T07:14:25.710Z,196.88
2018-09-12T07:15:25.943Z,196.88
2018-09-12T07:16:25.801Z,196.88
2018-09-12T07:17:25.815Z,202.50
2018-09-12T07:18:25.637Z,202.50
2018-09-12T07:19:25.670Z,202.50
2018-09-12T07:20:25.631Z,202.50
2018-09-12T07:21:25.696Z,202.50
2018-09-12T07:22:25.749Z,202.50
2018-09-12T07:23:25.700Z,202.50
2018-09-12T07:24:25.719Z,202.50
2018-09-12T07:25:25.929Z,202.50
2018-09-12T07:26:25.571Z,202.50
2018-09-12T07:27:25.573Z,202.50
2018-09-12T07:28:25.798Z,202.50
2018-09-12T07:29:25.602Z,202.50
2018-09-12T07:30:25.522Z,202.50
2018-09-12T07:31:25.623Z,208.12
2018-09-12T07:32:25.604Z,208.12
2018-09-12T07:33:27.003Z,208.12
2018-09-12T07:34:25.675Z,208.12
2018-09-12T07:35:25.467Z,208.12
2018-09-12T07:36:25.497Z,208.12
2018-09-12T07:37:25.431Z,208.12
2018-09-12T07:38:25.792Z,208.12
2018-09-12T07:39:25.436Z,208.12
2018-09-12T07:40:25.549Z,208.12
2018-09-12T07:41:25.473Z,208.12
2018-09-12T07:42:25.729Z,208.12
2018-09-12T07:43:25.487Z,208.12
2018-09-12T07:44:25.367Z,208.12
2018-09-12T07:45:25.356Z,208.12
2018-09-12T07:46:25.335Z,208.12
2018-09-12T07:47:25.373Z,208.12
2018-09-12T07:48:25.893Z,208.12
2018-09-12T07:49:25.316Z,208.12
2018-09-12T07:50:25.286Z,208.12
2018-09-12T07:51:25.363Z,208.12
2018-09-12T07:52:25.269Z,208.12
2018-09-12T07:53:25.275Z,213.75
2018-09-12T07:54:25.385Z,208.12
2018-09-12T07:55:25.618Z,213.75
2018-09-12T07:56:25.529Z,213.75
2018-09-12T07:57:25.242Z,219.38
2018-09-12T07:58:25.214Z,213.75
2018-09-12T07:59:28.281Z,213.75
2018-09-12T08:00:25.245Z,213.75
2018-09-12T08:01:25.189Z,213.75
2018-09-12T08:02:25.296Z,213.75
2018-09-12T08:03:25.146Z,213.75
2018-09-12T08:04:25.272Z,213.75
2018-09-12T08:05:25.343Z,213.75
2018-09-12T08:06:25.620Z,213.75
2018-09-12T08:07:25.110Z,213.75
2018-09-12T08:08:25.238Z,213.75
2018-09-12T08:09:25.085Z,213.75
2018-09-12T08:10:25.178Z,213.75
2018-09-12T08:11:25.242Z,213.75
2018-09-12T08:12:25.066Z,213.75
2018-09-12T08:13:25.046Z,213.75
2018-09-12T08:14:26.146Z,213.75
2018-09-12T08:15:25.023Z,213.75
2018-09-12T08:16:25.033Z,213.75
2018-09-12T08:17:25.003Z,213.75
2018-09-12T08:18:25.327Z,213.75
2018-09-12T08:19:24.973Z,213.75
2018-09-12T08:20:25.237Z,213.75
2018-09-12T08:21:24.971Z,213.75
2018-09-12T08:22:24.957Z,213.75
2018-09-12T08:23:24.945Z,213.75
2018-09-12T08:24:25.452Z,213.75
2018-09-12T08:25:24.923Z,213.75
2018-09-12T08:26:25.075Z,213.75
2018-09-12T08:27:24.918Z,213.75
2018-09-12T08:28:24.882Z,213.75
2018-09-12T08:29:26.350Z,213.75
2018-09-12T08:30:24.860Z,213.75
2018-09-12T08:31:24.859Z,213.75
2018-09-12T08:32:24.845Z,213.75
2018-09-12T08:33:24.916Z,213.75
2018-09-12T08:34:24.808Z,213.75
2018-09-12T08:35:24.807Z,213.75
2018-09-12T08:36:24.864Z,213.75
2018-09-12T08:37:24.777Z,213.75
2018-09-12T08:38:24.804Z,213.75
2018-09-12T08:39:24.870Z,213.75
2018-09-12T08:40:24.765Z,213.75
2018-09-12T08:41:24.781Z,213.75
2018-09-12T08:42:24.784Z,213.75
2018-09-12T08:43:24.977Z,219.38
2018-09-12T08:44:24.712Z,213.75
2018-09-12T08:45:24.692Z,213.75
2018-09-12T08:46:25.029Z,213.75
2018-09-12T08:47:24.945Z,213.75
2018-09-12T08:48:24.667Z,225.00
2018-09-12T08:49:24.658Z,219.38
2018-09-12T08:50:24.806Z,219.38
2018-09-12T08:51:25.700Z,219.38
2018-09-12T08:52:24.772Z,219.38
2018-09-12T08:53:24.866Z,219.38
2018-09-12T08:54:24.610Z,219.38
2018-09-12T08:55:24.645Z,219.38
2018-09-12T08:56:24.583Z,219.38
2018-09-12T08:57:24.578Z,219.38
2018-09-12T08:58:24.649Z,219.38
2018-09-12T08:59:25.225Z,225.00
2018-09-12T09:00:26.841Z,225.00
2018-09-12T09:01:24.542Z,225.00
2018-09-12T09:02:24.514Z,225.00
2018-09-12T09:03:24.509Z,225.00
2018-09-12T09:04:24.496Z,225.00
2018-09-12T09:05:24.473Z,225.00
2018-09-12T09:06:24.622Z,225.00
2018-09-12T09:07:25.076Z,225.00
2018-09-12T09:08:25.126Z,225.00
2018-09-12T09:09:24.478Z,225.00
2018-09-12T09:10:26.442Z,225.00
2018-09-12T09:11:24.410Z,225.00
2018-09-12T09:12:24.413Z,225.00
2018-09-12T09:13:24.404Z,225.00
2018-09-12T09:14:24.398Z,225.00
2018-09-12T09:15:25.673Z,225.00
2018-09-12T09:16:24.369Z,225.00
2018-09-12T09:17:25.206Z,225.00
2018-09-12T09:18:24.346Z,225.00
2018-09-12T09:19:24.329Z,225.00
2018-09-12T09:20:24.352Z,230.62
2018-09-12T09:21:24.414Z,230.62
2018-09-12T09:22:24.552Z,236.25
2018-09-12T09:23:24.281Z,236.25
2018-09-12T09:24:24.280Z,236.25
2018-09-12T09:25:24.264Z,236.25
2018-09-12T09:26:24.242Z,236.25
2018-09-12T09:27:24.256Z,236.25
2018-09-12T09:28:25.611Z,230.62
2018-09-12T09:29:24.258Z,230.62
2018-09-12T09:30:24.199Z,230.62
2018-09-12T09:31:24.273Z,230.62
2018-09-12T09:32:24.204Z,225.00
2018-09-12T09:33:24.327Z,225.00
2018-09-12T09:34:24.461Z,225.00
2018-09-12T09:35:24.243Z,225.00
2018-09-12T09:36:24.533Z,225.00
2018-09-12T09:37:24.138Z,225.00
2018-09-12T09:38:24.768Z,225.00
2018-09-12T09:39:24.144Z,225.00
2018-09-12T09:40:24.096Z,225.00
2018-09-12T09:41:24.115Z,225.00
2018-09-12T09:42:24.080Z,230.62
2018-09-12T09:43:24.068Z,230.62
2018-09-12T09:44:24.058Z,230.62
2018-09-12T09:45:24.058Z,230.62
2018-09-12T09:46:24.309Z,230.62
2018-09-12T09:47:24.069Z,230.62
2018-09-12T09:48:24.052Z,247.50
2018-09-12T09:49:24.030Z,253.12
2018-09-12T09:50:24.002Z,253.12
2018-09-12T09:51:24.115Z,264.38
2018-09-12T09:52:23.992Z,281.25
2018-09-12T09:53:24.236Z,315.00
2018-09-12T09:54:24.090Z,331.88
2018-09-12T09:55:23.985Z,331.88
2018-09-12T09:56:23.960Z,298.12
2018-09-12T09:57:24.044Z,264.38
2018-09-12T09:58:23.907Z,247.50
2018-09-12T09:59:23.906Z,241.88
2018-09-12T10:00:24.027Z,241.88
2018-09-12T10:01:23.873Z,241.88
2018-09-12T10:02:23.873Z,236.25
2018-09-12T10:03:23.858Z,241.88
2018-09-12T10:04:24.144Z,241.88
2018-09-12T10:05:24.257Z,236.25
2018-09-12T10:06:23.826Z,241.88
2018-09-12T10:07:23.915Z,247.50
2018-09-12T10:08:24.161Z,241.88
2018-09-12T10:09:23.787Z,241.88
2018-09-12T10:10:24.126Z,241.88
2018-09-12T10:11:23.790Z,241.88
2018-09-12T10:12:23.759Z,241.88
2018-09-12T10:13:23.747Z,241.88
2018-09-12T10:14:23.733Z,241.88
2018-09-12T10:15:25.824Z,247.50
2018-09-12T10:16:23.975Z,247.50
2018-09-12T10:17:23.772Z,253.12
2018-09-12T10:18:23.699Z,258.75
2018-09-12T10:19:23.681Z,281.25
2018-09-12T10:20:23.672Z,298.12
2018-09-12T10:21:23.663Z,286.88
2018-09-12T10:22:23.661Z,303.75
2018-09-12T10:23:26.867Z,326.25
2018-09-12T10:24:23.779Z,337.50
2018-09-12T10:25:23.698Z,348.75
2018-09-12T10:26:24.160Z,360.00
2018-09-12T10:27:23.595Z,382.50
2018-09-12T10:28:23.590Z,393.75
2018-09-12T10:29:23.566Z,343.12
2018-09-12T10:30:23.558Z,315.00
2018-09-12T10:31:23.565Z,298.12
2018-09-12T10:32:23.528Z,320.62
2018-09-12T10:33:23.785Z,331.88
2018-09-12T10:34:23.790Z,309.38
2018-09-12T10:35:23.532Z,303.75
2018-09-12T10:36:23.495Z,309.38
2018-09-12T10:37:23.482Z,298.12
2018-09-12T10:38:23.502Z,275.62
2018-09-12T10:39:23.468Z,258.75
2018-09-12T10:40:23.451Z,253.12
2018-09-12T10:41:23.443Z,264.38
2018-09-12T10:42:23.426Z,258.75
2018-09-12T10:43:23.674Z,258.75
2018-09-12T10:44:23.672Z,286.88
2018-09-12T10:45:23.669Z,281.25
2018-09-12T10:46:23.402Z,286.88
2018-09-12T10:47:23.385Z,315.00
2018-09-12T10:48:23.363Z,376.88
2018-09-12T10:49:23.358Z,354.38
2018-09-12T10:50:23.387Z,298.12
2018-09-12T10:51:23.324Z,281.25
2018-09-12T10:52:23.439Z,264.38
2018-09-12T10:53:23.321Z,286.88
2018-09-12T10:54:23.302Z,292.50
2018-09-12T10:55:23.292Z,292.50
2018-09-12T10:56:23.275Z,270.00
2018-09-12T10:57:23.293Z,247.50
2018-09-12T10:58:23.357Z,253.12
2018-09-12T10:59:23.422Z,281.25
2018-09-12T11:00:23.271Z,258.75
2018-09-12T11:01:23.229Z,241.88
2018-09-12T11:02:23.228Z,236.25
2018-09-12T11:03:27.298Z,247.50
2018-09-12T11:04:23.230Z,264.38
2018-09-12T11:05:23.451Z,286.88
2018-09-12T11:06:23.457Z,303.75
2018-09-12T11:07:23.158Z,303.75
2018-09-12T11:08:23.170Z,326.25
2018-09-12T11:09:23.148Z,337.50
2018-09-12T11:10:23.126Z,331.88
2018-09-12T11:11:23.120Z,309.38
2018-09-12T11:12:23.121Z,281.25
2018-09-12T11:13:23.115Z,264.38
2018-09-12T11:14:23.088Z,236.25
2018-09-12T11:15:23.115Z,247.50
2018-09-12T11:16:23.074Z,258.75
2018-09-12T11:17:23.055Z,292.50
2018-09-12T11:18:23.056Z,286.88
2018-09-12T11:19:23.048Z,281.25
2018-09-12T11:20:23.044Z,286.88
2018-09-12T11:21:23.877Z,281.25
2018-09-12T11:22:22.998Z,264.38
2018-09-12T11:23:22.990Z,286.88
2018-09-12T11:24:22.975Z,331.88
2018-09-12T11:25:22.964Z,376.88
2018-09-12T11:26:22.960Z,365.62
2018-09-12T11:27:22.951Z,354.38
2018-09-12T11:28:22.938Z,405.00
2018-09-12T11:29:22.915Z,410.62
2018-09-12T11:30:22.910Z,405.00
2018-09-12T11:31:24.082Z,388.12
2018-09-12T11:32:22.891Z,399.38
2018-09-12T11:33:22.926Z,371.25
2018-09-12T11:34:23.342Z,421.88
2018-09-12T11:35:23.181Z,511.88
2018-09-12T11:36:25.717Z,551.25
2018-09-12T11:37:22.850Z,540.00
2018-09-12T11:38:22.826Z,489.38
2018-09-12T11:39:22.824Z,461.25
2018-09-12T11:40:22.955Z,421.88
2018-09-12T11:41:22.804Z,393.75
2018-09-12T11:42:22.813Z,360.00
2018-09-12T11:43:22.902Z,315.00
2018-09-12T11:44:22.762Z,298.12
2018-09-12T11:45:22.912Z,270.00
2018-09-12T11:46:22.740Z,264.38
2018-09-12T11:47:22.751Z,264.38
2018-09-12T11:48:22.715Z,275.62
2018-09-12T11:49:22.743Z,275.62
2018-09-12T11:50:22.690Z,320.62
2018-09-12T11:51:23.757Z,365.62
2018-09-12T11:52:22.825Z,382.50
2018-09-12T11:53:22.702Z,410.62
2018-09-12T11:54:22.929Z,444.38
2018-09-12T11:55:22.688Z,500.62
2018-09-12T11:56:22.652Z,551.25
2018-09-12T11:57:22.624Z,590.62
2018-09-12T11:58:22.624Z,613.12
2018-09-12T11:59:22.654Z,562.50
2018-09-12T12:00:22.582Z,489.38
2018-09-12T12:01:22.995Z,455.62
2018-09-12T12:02:23.554Z,466.88
2018-09-12T12:03:22.549Z,478.12
2018-09-12T12:04:22.919Z,466.88
2018-09-12T12:05:22.554Z,416.25
2018-09-12T12:06:22.590Z,388.12
2018-09-12T12:07:22.800Z,331.88
2018-09-12T12:08:22.502Z,303.75
2018-09-12T12:09:22.887Z,281.25
2018-09-12T12:10:22.476Z,258.75
2018-09-12T12:11:22.753Z,253.12
2018-09-12T12:12:22.754Z,253.12
2018-09-12T12:13:22.454Z,275.62
2018-09-12T12:14:22.506Z,270.00
2018-09-12T12:15:25.632Z,258.75
2018-09-12T12:16:23.460Z,247.50
2018-09-12T12:17:22.404Z,247.50
2018-09-12T12:18:22.650Z,247.50
2018-09-12T12:19:22.378Z,247.50
2018-09-12T12:20:22.397Z,247.50
2018-09-12T12:21:22.355Z,247.50
2018-09-12T12:22:22.358Z,253.12
2018-09-12T12:23:22.340Z,253.12
2018-09-12T12:24:22.335Z,253.12
2018-09-12T12:25:22.330Z,253.12
2018-09-12T12:26:22.437Z,247.50
2018-09-12T12:27:22.300Z,247.50
2018-09-12T12:28:22.290Z,247.50
2018-09-12T12:29:22.276Z,241.88
2018-09-12T12:30:22.531Z,247.50
2018-09-12T12:31:22.252Z,247.50
2018-09-12T12:32:22.240Z,253.12
2018-09-12T12:33:22.763Z,286.88
2018-09-12T12:34:22.229Z,326.25
2018-09-12T12:35:22.865Z,337.50
2018-09-12T12:36:22.201Z,286.88
2018-09-12T12:37:22.184Z,258.75
2018-09-12T12:38:22.176Z,247.50
2018-09-12T12:39:22.427Z,241.88
2018-09-12T12:40:22.154Z,241.88
2018-09-12T12:41:22.245Z,241.88
2018-09-12T12:42:22.145Z,241.88
2018-09-12T12:43:22.143Z,247.50
2018-09-12T12:44:22.237Z,247.50
2018-09-12T12:45:22.106Z,241.88
2018-09-12T12:46:22.086Z,241.88
2018-09-12T12:47:22.340Z,247.50
2018-09-12T12:48:22.188Z,247.50